Time;durP1;ratioP1;P1;durP2;ratioP2;P2;SDS_P1;SDS_P2;PMS_P1;PMS_P2;Temp;Humidity;BMP_temperature;BMP_pressure;BME280_temperature;BME280_humidity;BME280_pressure;Samples;Min_cycle;Max_cycle;Signal;HPM_P1;HPM_P2
2023/11/28 00:01:03;;;;;;;4.10;1.95;;;;;;;-0.66;81.12;96923.28;5025224;28;20034;-36
2023/11/28 00:03:29;;;;;;;2.47;1.88;;;;;;;-0.70;81.67;96920.00;5026642;28;20510;-36
2023/11/28 00:05:55;;;;;;;4.60;2.13;;;;;;;-0.73;81.91;96930.31;5009989;28;20063;-36
2023/11/28 00:08:21;;;;;;;3.38;2.10;;;;;;;-0.73;82.82;96955.00;5027835;28;20128;-37
2023/11/28 00:10:47;;;;;;;5.45;2.85;;;;;;;-0.74;82.59;96921.00;5027620;28;20033;-36
2023/11/28 00:13:13;;;;;;;3.67;1.98;;;;;;;-0.69;84.19;96929.34;5028959;28;20045;-36
2023/11/28 00:15:39;;;;;;;5.25;2.30;;;;;;;-0.71;83.52;96933.66;5015530;28;20037;-35
2023/11/28 00:18:06;;;;;;;4.30;2.33;;;;;;;-0.93;83.73;96908.03;5027656;28;20562;-37
2023/11/28 00:20:32;;;;;;;2.67;1.75;;;;;;;-0.80;83.57;96941.63;5028004;28;20133;-37
2023/11/28 00:22:57;;;;;;;5.07;2.67;;;;;;;-1.01;82.58;96915.13;5027448;28;20033;-36
2023/11/28 00:25:23;;;;;;;4.88;2.25;;;;;;;-0.83;82.75;96954.44;5028455;28;20034;-36
2023/11/28 00:27:50;;;;;;;3.33;1.92;;;;;;;-1.00;83.70;96915.94;5027590;28;20554;-36
2023/11/28 00:30:16;;;;;;;5.65;2.20;;;;;;;-0.83;83.15;96958.72;5026357;28;20038;-37
2023/11/28 00:32:45;;;;;;;4.88;2.40;;;;;;;-0.87;83.17;96961.38;5026916;28;20103;-36
2023/11/28 00:35:11;;;;;;;4.13;2.13;;;;;;;-0.85;83.71;96966.44;5025359;28;20144;-37
2023/11/28 00:37:37;;;;;;;3.47;1.98;;;;;;;-0.95;84.88;96934.47;5023388;28;20111;-36
2023/11/28 00:40:11;;;;;;;6.20;2.58;;;;;;;-1.15;84.46;96912.16;5011112;28;20030;-37
2023/11/28 00:42:40;;;;;;;3.38;2.15;;;;;;;-0.85;84.19;96969.00;5026625;28;20051;-36
2023/11/28 00:45:07;;;;;;;3.33;1.95;;;;;;;-0.84;84.56;96975.75;5043991;28;20065;-36
2023/11/28 00:47:39;;;;;;;3.17;1.80;;;;;;;-1.23;84.13;96920.94;5058965;28;20104;-37
2023/11/28 00:50:06;;;;;;;3.20;2.05;;;;;;;-0.91;84.28;96974.28;5017829;28;20537;-37
2023/11/28 00:52:32;;;;;;;4.95;2.10;;;;;;;-0.88;84.56;96985.19;5050216;28;20042;-37
2023/11/28 00:54:58;;;;;;;3.20;1.90;;;;;;;-0.81;86.12;97001.16;5024401;28;20488;-37
2023/11/28 00:57:24;;;;;;;3.90;2.25;;;;;;;-0.86;86.15;96985.16;5027189;28;20128;-36
2023/11/28 00:59:51;;;;;;;6.00;1.92;;;;;;;-0.85;86.04;96997.03;5026333;28;20056;-37
2023/11/28 01:02:17;;;;;;;3.70;2.03;;;;;;;-0.88;84.96;96997.13;5028218;28;20030;-36
2023/11/28 01:04:44;;;;;;;4.10;2.00;;;;;;;-0.87;85.81;97019.19;5026467;28;20148;-36
2023/11/28 01:07:10;;;;;;;2.28;1.17;;;;;;;-1.17;85.71;96980.22;5028522;28;20136;-36
2023/11/28 01:09:36;;;;;;;2.72;1.48;;;;;;;-1.00;86.54;97038.31;5026530;28;20538;-36
2023/11/28 01:12:03;;;;;;;3.22;1.30;;;;;;;-1.03;87.36;97026.47;5008560;28;20469;-36
2023/11/28 01:14:31;;;;;;;3.97;2.00;;;;;;;-1.07;86.42;97021.53;5011944;28;20041;-37
2023/11/28 01:16:57;;;;;;;4.45;2.08;;;;;;;-1.45;87.37;96970.03;5027683;28;20047;-37
2023/11/28 01:19:23;;;;;;;3.55;1.92;;;;;;;-1.05;87.92;97024.88;5028158;28;20041;-37
2023/11/28 01:21:48;;;;;;;3.63;1.95;;;;;;;-1.03;88.35;97036.69;5025256;28;20029;-37
2023/11/28 01:24:14;;;;;;;1.77;1.15;;;;;;;-0.97;87.20;97040.75;5009097;28;20486;-37
2023/11/28 01:26:40;;;;;;;3.70;1.77;;;;;;;-1.03;85.26;97041.78;5027369;28;20511;-36
2023/11/28 01:29:06;;;;;;;3.38;1.70;;;;;;;-0.97;85.54;97048.41;5025888;28;20050;-36
2023/11/28 01:31:32;;;;;;;3.40;1.98;;;;;;;-0.95;85.26;97059.41;5026765;28;20129;-37
2023/11/28 01:33:58;;;;;;;2.03;1.27;;;;;;;-0.94;85.56;97076.34;5041974;28;20505;-37
2023/11/28 01:36:24;;;;;;;2.78;1.63;;;;;;;-1.00;84.00;97067.19;5026994;28;20143;-37
2023/11/28 01:38:50;;;;;;;5.00;2.10;;;;;;;-1.00;84.40;97063.81;5020032;28;20096;-36
2023/11/28 01:41:16;;;;;;;4.35;1.65;;;;;;;-0.96;84.87;97070.47;5026370;28;20045;-37
2023/11/28 01:43:42;;;;;;;1.75;1.20;;;;;;;-0.93;85.95;97093.31;5020997;28;20042;-37
2023/11/28 01:46:09;;;;;;;3.97;2.35;;;;;;;-0.98;83.87;97082.44;5027100;28;20140;-38
2023/11/28 01:48:35;;;;;;;3.00;1.77;;;;;;;-1.10;83.88;97078.53;5025814;28;20053;-38
2023/11/28 01:51:02;;;;;;;3.88;1.67;;;;;;;-1.00;84.99;97089.31;5026170;28;20043;-37
2023/11/28 01:53:29;;;;;;;2.97;1.45;;;;;;;-1.02;84.09;97091.06;5056515;28;20048;-36
2023/11/28 01:55:55;;;;;;;2.35;1.50;;;;;;;-1.38;82.51;97045.41;5012816;28;20057;-35
2023/11/28 01:58:22;;;;;;;4.00;1.70;;;;;;;-1.11;82.39;97101.53;5011461;28;20069;-36
2023/11/28 02:00:48;;;;;;;4.93;1.73;;;;;;;-1.18;81.13;97107.69;5032131;28;20037;-36
2023/11/28 02:03:15;;;;;;;4.43;2.10;;;;;;;-1.53;81.39;97065.38;5024138;28;20033;-36
2023/11/28 02:05:41;;;;;;;4.43;1.90;;;;;;;-1.39;82.88;97091.28;5023893;28;20076;-36
2023/11/28 02:08:07;;;;;;;4.50;2.10;;;;;;;-1.18;83.14;97121.25;5013351;28;20083;-37
2023/11/28 02:10:35;;;;;;;2.53;1.42;;;;;;;-1.13;84.28;97128.75;5009383;28;20132;-37
2023/11/28 02:13:06;;;;;;;6.20;2.00;;;;;;;-1.15;83.61;97133.91;5014276;28;20501;-37
2023/11/28 02:15:38;;;;;;;3.80;1.75;;;;;;;-1.17;82.64;97129.75;5026664;28;20119;-38
2023/11/28 02:18:04;;;;;;;2.95;2.00;;;;;;;-1.16;82.05;97137.34;5038623;28;20560;-37
2023/11/28 02:20:30;;;;;;;4.82;1.70;;;;;;;-1.16;81.77;97139.06;5027284;28;20045;-37
2023/11/28 02:22:56;;;;;;;3.42;2.22;;;;;;;-1.22;79.32;97131.59;5008075;28;20420;-43
2023/11/28 02:25:23;;;;;;;3.15;1.70;;;;;;;-1.22;79.62;97142.63;5026485;28;20578;-36
2023/11/28 02:27:49;;;;;;;2.00;1.38;;;;;;;-1.26;78.18;97148.69;5003860;28;20425;-37
2023/11/28 02:30:15;;;;;;;3.97;1.83;;;;;;;-1.17;79.93;97150.13;5018822;28;20038;-37
2023/11/28 02:32:41;;;;;;;2.20;1.23;;;;;;;-1.31;81.31;97117.41;5007628;28;20444;-37
2023/11/28 02:35:07;;;;;;;2.88;1.77;;;;;;;-1.13;80.33;97165.28;5009149;28;20494;-35
2023/11/28 02:37:34;;;;;;;5.22;2.05;;;;;;;-1.10;80.40;97157.53;5008848;28;20536;-37
2023/11/28 02:40:00;;;;;;;2.90;1.80;;;;;;;-1.10;80.95;97160.09;5025745;28;20045;-36
2023/11/28 02:42:26;;;;;;;4.55;1.98;;;;;;;-1.05;81.98;97170.19;5025092;28;20041;-36
2023/11/28 02:44:51;;;;;;;4.03;1.85;;;;;;;-1.04;83.00;97187.13;5026089;28;20501;-36
2023/11/28 02:47:17;;;;;;;3.90;1.60;;;;;;;-1.13;82.78;97179.75;5022521;28;20049;-36
2023/11/28 02:49:43;;;;;;;3.25;2.00;;;;;;;-1.15;81.88;97178.97;5040587;28;20045;-37
2023/11/28 02:52:09;;;;;;;4.03;1.40;;;;;;;-1.12;82.48;97191.63;5005674;28;20464;-37
2023/11/28 02:54:35;;;;;;;3.95;2.15;;;;;;;-1.10;83.35;97185.59;5025365;28;20075;-36
2023/11/28 02:57:01;;;;;;;2.15;1.50;;;;;;;-1.09;82.75;97186.41;5009077;28;20056;-38
2023/11/28 02:59:28;;;;;;;3.80;2.25;;;;;;;-1.23;82.53;97163.03;5024989;28;20041;-36
2023/11/28 03:01:54;;;;;;;6.10;2.50;;;;;;;-1.12;80.75;97191.63;5026513;28;20065;-37
2023/11/28 03:04:21;;;;;;;0.82;0.70;;;;;;;-1.16;79.09;97187.50;5025208;28;20092;-37
2023/11/28 03:06:48;;;;;;;3.05;1.52;;;;;;;-1.21;77.55;97207.16;5040953;28;20049;-37
2023/11/28 03:09:13;;;;;;;2.47;1.52;;;;;;;-1.30;76.02;97187.84;5011977;28;20519;-37
2023/11/28 03:11:39;;;;;;;2.97;1.45;;;;;;;-1.45;76.15;97166.19;5011156;28;20041;-35
2023/11/28 03:14:06;;;;;;;2.35;1.60;;;;;;;-1.19;77.45;97201.13;5010791;28;20034;-36
2023/11/28 03:16:32;;;;;;;3.33;1.30;;;;;;;-1.24;78.46;97176.66;5020325;28;20045;-37
2023/11/28 03:18:57;;;;;;;6.20;1.42;;;;;;;-1.08;78.39;97209.31;5005224;28;20157;-36
2023/11/28 03:21:23;;;;;;;20.10;2.03;;;;;;;-0.96;80.00;97220.91;5021419;28;20041;-37
2023/11/28 03:23:49;;;;;;;3.60;1.83;;;;;;;-1.00;80.24;97212.53;5025400;28;20139;-37
2023/11/28 03:26:15;;;;;;;3.97;2.03;;;;;;;-0.90;80.06;97224.13;5040467;28;20047;-37
2023/11/28 03:28:41;;;;;;;3.67;2.30;;;;;;;-0.89;80.69;97225.78;5024528;28;20133;-36
2023/11/28 03:31:07;;;;;;;3.53;1.98;;;;;;;-0.89;80.98;97233.41;5023744;28;20126;-38
2023/11/28 03:33:34;;;;;;;3.08;1.75;;;;;;;-0.91;81.56;97244.56;5024835;28;20092;-37
2023/11/28 03:36:00;;;;;;;2.85;1.80;;;;;;;-0.99;81.44;97256.66;5024418;28;20816;-37
2023/11/28 03:38:26;;;;;;;3.08;1.75;;;;;;;-1.28;81.67;97221.78;5023031;28;20161;-36
2023/11/28 03:40:51;;;;;;;2.75;1.67;;;;;;;-1.14;82.14;97255.38;5025138;28;20064;-37
2023/11/28 03:43:17;;;;;;;5.40;1.85;;;;;;;-1.21;83.71;97253.88;5024766;28;20429;-37
2023/11/28 03:45:43;;;;;;;3.55;2.03;;;;;;;-1.44;84.32;97235.81;5024507;28;20037;-38
2023/11/28 03:48:09;;;;;;;2.60;1.60;;;;;;;-1.52;85.52;97237.72;5026738;28;20130;-35
2023/11/28 03:50:35;;;;;;;4.07;2.08;;;;;;;-1.36;86.40;97277.22;5029751;28;20527;-36
2023/11/28 03:53:01;;;;;;;2.08;1.23;;;;;;;-1.48;87.08;97275.81;5028623;28;20045;-37
2023/11/28 03:55:29;;;;;;;4.95;2.10;;;;;;;-1.67;86.91;97277.13;5010574;28;20038;-38
2023/11/28 03:57:54;;;;;;;5.47;1.90;;;;;;;-1.68;87.68;97288.22;5028511;28;20131;-37
2023/11/28 04:00:21;;;;;;;3.45;2.00;;;;;;;-1.92;89.03;97232.78;5026927;28;20029;-39
2023/11/28 04:02:47;;;;;;;3.42;2.05;;;;;;;-1.61;89.49;97299.91;5028542;28;20041;-38
2023/11/28 04:05:13;;;;;;;3.03;1.50;;;;;;;-1.56;89.20;97312.53;5024146;28;20083;-38
2023/11/28 04:07:39;;;;;;;1.05;0.85;;;;;;;-1.61;89.04;97310.09;5026538;28;20122;-38
2023/11/28 04:10:05;;;;;;;4.32;1.88;;;;;;;-1.79;86.90;97313.09;5027745;28;20399;-39
2023/11/28 04:12:31;;;;;;;3.28;1.90;;;;;;;-1.71;86.80;97329.88;5011517;28;20041;-38
2023/11/28 04:14:57;;;;;;;2.75;1.70;;;;;;;-1.72;87.08;97334.97;5028131;28;20048;-38
2023/11/28 04:17:23;;;;;;;2.85;1.55;;;;;;;-1.80;86.92;97331.78;5026887;28;20060;-37
2023/11/28 04:19:49;;;;;;;2.97;1.58;;;;;;;-1.87;87.09;97322.59;5027929;28;20120;-37
2023/11/28 04:22:15;;;;;;;3.72;1.63;;;;;;;-1.87;87.30;97332.78;5027816;28;20202;-37
2023/11/28 04:24:44;;;;;;;3.55;1.45;;;;;;;-1.93;86.79;97326.13;5027915;28;20047;-38
2023/11/28 04:27:14;;;;;;;2.67;1.77;;;;;;;-1.90;86.43;97356.63;5025761;28;20053;-38
2023/11/28 04:29:40;;;;;;;3.90;1.98;;;;;;;-1.93;86.19;97360.94;5027839;28;20045;-38
2023/11/28 04:32:07;;;;;;;1.90;1.60;;;;;;;-1.93;86.01;97371.13;5028370;28;20045;-36
2023/11/28 04:34:33;;;;;;;5.43;2.00;;;;;;;-1.95;85.74;97368.63;5028102;28;20104;-38
2023/11/28 04:36:59;;;;;;;4.15;2.03;;;;;;;-1.93;85.49;97371.13;5027187;28;20211;-39
2023/11/28 04:39:26;;;;;;;4.68;2.17;;;;;;;-1.97;85.08;97374.59;5028071;28;20072;-38
2023/11/28 04:41:56;;;;;;;6.75;2.70;;;;;;;-2.04;84.13;97375.63;5008734;28;20045;-38
2023/11/28 04:44:22;;;;;;;2.80;1.38;;;;;;;-2.16;84.22;97369.09;5000515;28;20045;-37
2023/11/28 04:46:49;;;;;;;2.38;1.30;;;;;;;-2.03;83.00;97384.91;5028017;28;20037;-36
2023/11/28 04:49:15;;;;;;;1.90;1.13;;;;;;;-2.23;81.10;97370.91;5020618;28;20046;-37
2023/11/28 04:51:41;;;;;;;2.70;1.30;;;;;;;-2.13;79.88;97392.75;5004064;28;20049;-36
2023/11/28 04:54:08;;;;;;;2.42;1.73;;;;;;;-2.13;79.05;97407.19;5010557;28;20045;-36
2023/11/28 04:56:34;;;;;;;3.40;1.55;;;;;;;-2.22;77.21;97405.66;5027669;28;20045;-36
2023/11/28 04:59:00;;;;;;;2.85;1.33;;;;;;;-2.24;77.57;97415.03;5026811;28;20148;-37
2023/11/28 05:01:26;;;;;;;4.82;2.00;;;;;;;-2.24;78.22;97416.72;5027609;28;20127;-36
2023/11/28 05:03:52;;;;;;;2.60;1.52;;;;;;;-2.29;77.53;97424.47;5026825;28;20207;-37
2023/11/28 05:06:18;;;;;;;3.17;1.50;;;;;;;-2.34;78.09;97420.31;5032149;28;20041;-37
2023/11/28 05:08:44;;;;;;;3.55;1.90;;;;;;;-2.32;78.68;97434.72;5030498;28;20057;-38
2023/11/28 05:11:10;;;;;;;3.97;1.85;;;;;;;-2.28;79.00;97438.03;5033449;28;20056;-38
2023/11/28 05:13:36;;;;;;;4.68;2.47;;;;;;;-2.29;78.53;97437.19;5034585;28;20081;-38
2023/11/28 05:16:03;;;;;;;3.65;1.58;;;;;;;-2.19;78.49;97440.38;5036781;28;20463;-37
2023/11/28 05:18:28;;;;;;;5.00;1.50;;;;;;;-2.40;76.92;97434.00;5019757;28;20510;-39
2023/11/28 05:20:54;;;;;;;3.45;1.70;;;;;;;-2.25;76.09;97448.97;5033652;28;20045;-37
2023/11/28 05:23:22;;;;;;;3.83;2.08;;;;;;;-2.25;75.81;97456.59;5033518;28;20049;-38
2023/11/28 05:25:49;;;;;;;3.78;2.22;;;;;;;-2.41;76.19;97428.97;5020123;28;20049;-38
2023/11/28 05:28:15;;;;;;;5.03;2.33;;;;;;;-2.24;75.78;97473.56;5016137;28;20032;-38
2023/11/28 05:30:41;;;;;;;5.25;2.42;;;;;;;-2.40;75.33;97453.50;5035783;28;20049;-38
2023/11/28 05:33:07;;;;;;;6.47;2.10;;;;;;;-2.34;74.99;97477.13;5034127;28;20050;-38
2023/11/28 05:35:33;;;;;;;2.97;1.70;;;;;;;-2.45;74.54;97462.94;5033085;28;20048;-37
2023/11/28 05:38:01;;;;;;;2.58;1.90;;;;;;;-2.26;73.94;97493.13;5030804;28;20051;-37
2023/11/28 05:40:27;;;;;;;4.95;2.30;;;;;;;-2.24;73.75;97493.91;5033761;28;20034;-37
2023/11/28 05:42:53;;;;;;;3.35;1.85;;;;;;;-2.19;74.08;97504.00;5015585;28;20579;-36
2023/11/28 05:45:19;;;;;;;1.75;1.13;;;;;;;-2.25;74.01;97502.41;5034224;28;20100;-38
2023/11/28 05:47:45;;;;;;;5.75;1.63;;;;;;;-2.18;73.62;97498.88;5016494;28;20048;-37
2023/11/28 05:50:12;;;;;;;3.35;1.75;;;;;;;-2.16;73.40;97519.22;5040320;28;20041;-38
2023/11/28 05:52:38;;;;;;;4.70;2.20;;;;;;;-2.16;73.18;97527.72;5009903;28;20623;-37
2023/11/28 05:55:05;;;;;;;2.33;1.33;;;;;;;-2.26;73.14;97515.19;5025917;28;20073;-38
2023/11/28 05:57:32;;;;;;;4.47;1.92;;;;;;;-2.13;73.72;97512.38;5026926;28;20516;-36
2023/11/28 05:59:57;;;;;;;1.33;0.88;;;;;;;-2.31;73.62;97486.44;5024774;28;20045;-38
2023/11/28 06:02:24;;;;;;;3.67;1.60;;;;;;;-2.08;73.89;97513.97;5009402;28;20047;-37
2023/11/28 06:04:50;;;;;;;2.50;1.30;;;;;;;-2.09;73.73;97523.31;5053718;28;20045;-38
2023/11/28 06:07:16;;;;;;;4.00;1.85;;;;;;;-2.14;73.21;97537.84;5025857;28;20060;-37
2023/11/28 06:09:42;;;;;;;4.40;1.92;;;;;;;-2.19;72.62;97539.63;5039316;28;20037;-38
2023/11/28 06:12:08;;;;;;;6.50;2.30;;;;;;;-2.34;72.19;97506.84;5025025;28;20053;-39
2023/11/28 06:14:36;;;;;;;3.72;1.80;;;;;;;-2.04;72.79;97539.34;5026967;28;20041;-42
2023/11/28 06:17:02;;;;;;;3.50;1.75;;;;;;;-2.12;71.48;97546.28;5025645;28;20045;-38
2023/11/28 06:19:28;;;;;;;2.08;1.42;;;;;;;-2.30;71.52;97519.47;5024910;28;20072;-37
2023/11/28 06:21:54;;;;;;;3.85;2.42;;;;;;;-2.12;71.44;97561.56;5024813;28;20175;-39
2023/11/28 06:24:20;;;;;;;4.93;2.13;;;;;;;-2.12;71.52;97566.66;5025931;28;20041;-38
2023/11/28 06:26:46;;;;;;;1.80;1.20;;;;;;;-2.07;71.33;97577.59;5025168;28;20073;-38
2023/11/28 06:29:12;;;;;;;2.55;1.40;;;;;;;-2.32;70.90;97556.00;5026390;28;20058;-38
2023/11/28 06:31:38;;;;;;;3.17;1.95;;;;;;;-2.38;71.61;97558.63;5020338;28;20584;-38
2023/11/28 06:34:04;;;;;;;2.53;1.67;;;;;;;-2.18;71.49;97582.03;5020271;28;20128;-38
2023/11/28 06:36:30;;;;;;;5.25;2.22;;;;;;;-2.12;71.60;97592.09;4995375;28;20536;-37
2023/11/28 06:38:56;;;;;;;5.97;1.42;;;;;;;-2.31;71.30;97571.25;5024281;28;20053;-38
2023/11/28 06:41:22;;;;;;;2.10;1.42;;;;;;;-2.08;71.27;97611.53;5022788;28;20038;-38
2023/11/28 06:43:49;;;;;;;2.72;1.27;;;;;;;-2.10;70.94;97604.81;5025362;28;20144;-38
2023/11/28 06:46:19;;;;;;;2.67;1.65;;;;;;;-2.11;70.60;97623.50;5023626;28;20517;-39
2023/11/28 06:48:45;;;;;;;1.85;1.30;;;;;;;-2.20;70.16;97616.88;5005977;28;20053;-38
2023/11/28 06:51:11;;;;;;;3.25;1.65;;;;;;;-2.16;70.45;97624.41;5024839;28;20328;-38
2023/11/28 06:53:37;;;;;;;5.88;2.17;;;;;;;-1.99;70.99;97631.72;5022718;28;20132;-38
2023/11/28 06:56:04;;;;;;;2.60;1.45;;;;;;;-1.94;70.92;97642.72;5023870;28;20153;-36
2023/11/28 06:58:30;;;;;;;5.53;2.03;;;;;;;-1.90;71.08;97651.13;5026789;28;20045;-39
2023/11/28 07:00:56;;;;;;;1.85;1.05;;;;;;;-1.97;70.64;97655.47;5025360;28;20037;-40
2023/11/28 07:03:23;;;;;;;3.40;2.00;;;;;;;-2.09;71.06;97649.78;5025370;28;20124;-38
2023/11/28 07:05:48;;;;;;;6.40;1.75;;;;;;;-2.10;71.23;97648.91;5024073;28;20048;-37
2023/11/28 07:08:14;;;;;;;5.53;1.77;;;;;;;-2.31;72.29;97619.59;5023498;28;20041;-37
2023/11/28 07:10:40;;;;;;;3.92;2.20;;;;;;;-2.07;72.40;97666.69;5024976;28;20463;-39
2023/11/28 07:13:06;;;;;;;4.20;2.10;;;;;;;-2.11;72.63;97661.66;5025173;28;20037;-37
2023/11/28 07:15:32;;;;;;;5.00;2.20;;;;;;;-2.06;72.92;97681.09;5026238;28;20037;-38
2023/11/28 07:18:00;;;;;;;3.15;1.42;;;;;;;-2.11;73.12;97676.94;5026167;28;20049;-38
2023/11/28 07:20:28;;;;;;;1.92;0.90;;;;;;;-2.15;73.24;97688.88;5027680;28;20474;-36
2023/11/28 07:22:55;;;;;;;3.88;2.20;;;;;;;-2.26;73.51;97673.78;5025885;28;20454;-37
2023/11/28 07:25:23;;;;;;;4.70;2.22;;;;;;;-2.14;73.70;97691.38;5030341;28;20083;-38
2023/11/28 07:27:49;;;;;;;3.47;2.20;;;;;;;-2.13;73.90;97697.31;5028480;28;20045;-39
2023/11/28 07:30:16;;;;;;;3.90;2.08;;;;;;;-2.07;74.15;97709.09;5028655;28;20543;-38
2023/11/28 07:32:42;;;;;;;2.95;1.98;;;;;;;-2.07;74.58;97716.75;5029525;28;20513;-38
2023/11/28 07:35:08;;;;;;;2.03;1.30;;;;;;;-2.02;74.63;97725.13;5026921;28;20041;-37
2023/11/28 07:37:35;;;;;;;5.43;2.10;;;;;;;-1.91;75.02;97730.91;5024024;28;20156;-38
2023/11/28 07:40:04;;;;;;;4.22;2.13;;;;;;;-1.89;74.67;97735.13;5027755;28;20621;-36
2023/11/28 07:42:31;;;;;;;5.13;1.85;;;;;;;-1.81;74.56;97738.38;5025214;28;20057;-36
2023/11/28 07:44:57;;;;;;;4.53;2.13;;;;;;;-1.79;75.45;97734.09;5009499;28;20104;-37
2023/11/28 07:47:23;;;;;;;4.03;2.15;;;;;;;-1.81;74.29;97737.53;5026366;28;20065;-37
2023/11/28 07:49:49;;;;;;;6.90;2.63;;;;;;;-2.01;73.86;97732.75;5023270;28;20069;-37
2023/11/28 07:52:15;;;;;;;6.72;2.13;;;;;;;-1.95;73.77;97749.66;5028314;28;20472;-37
2023/11/28 07:54:41;;;;;;;3.80;1.88;;;;;;;-2.28;73.43;97706.03;4995955;28;20425;-38
2023/11/28 07:57:06;;;;;;;4.65;1.35;;;;;;;-1.96;73.58;97759.00;5024702;28;20049;-37
2023/11/28 07:59:33;;;;;;;8.55;2.50;;;;;;;-1.94;73.57;97761.53;5028552;28;20040;-38
2023/11/28 08:01:59;;;;;;;3.95;2.10;;;;;;;-1.80;73.71;97759.59;5027781;28;20115;-38
2023/11/28 08:04:24;;;;;;;5.00;1.98;;;;;;;-2.05;73.69;97731.13;5026209;28;20045;-37
2023/11/28 08:06:50;;;;;;;3.25;1.73;;;;;;;-1.82;73.71;97768.94;5028655;28;20773;-37
2023/11/28 08:09:16;;;;;;;4.63;2.60;;;;;;;-1.80;73.41;97782.50;5026814;28;20042;-38
2023/11/28 08:11:42;;;;;;;4.68;2.38;;;;;;;-1.79;73.74;97779.09;5028739;28;20494;-37
2023/11/28 08:14:08;;;;;;;4.63;1.67;;;;;;;-2.07;73.09;97735.41;5028422;28;20077;-38
2023/11/28 08:16:34;;;;;;;3.53;1.77;;;;;;;-2.02;73.44;97770.97;5024160;28;20069;-37
2023/11/28 08:19:00;;;;;;;5.90;2.20;;;;;;;-2.01;73.88;97770.94;5025779;28;20046;-38
2023/11/28 08:21:26;;;;;;;5.03;1.92;;;;;;;-1.97;73.75;97779.38;5026990;28;20071;-36
2023/11/28 08:23:52;;;;;;;8.13;2.38;;;;;;;-1.91;73.75;97789.47;5026590;28;20049;-38
2023/11/28 08:26:18;;;;;;;2.20;0.98;;;;;;;-1.78;73.66;97796.06;5023037;28;20681;-36
2023/11/28 08:28:44;;;;;;;4.30;2.20;;;;;;;-1.85;72.87;97795.31;5020462;28;20184;-37
2023/11/28 08:31:10;;;;;;;5.68;2.05;;;;;;;-2.07;72.91;97754.91;5018687;28;20467;-38
2023/11/28 08:33:36;;;;;;;6.38;2.50;;;;;;;-1.82;72.75;97800.34;5049926;28;20057;-38
2023/11/28 08:36:01;;;;;;;6.15;2.67;;;;;;;-1.73;72.64;97829.94;5018525;28;20037;-37
2023/11/28 08:38:31;;;;;;;4.45;1.92;;;;;;;-1.90;71.60;97821.72;5014436;28;20050;-38
2023/11/28 08:40:57;;;;;;;;;;;;;;;-2.05;71.43;97830.41;5012214;28;20033;-37
2023/11/28 08:43:23;;;;;;;4.15;2.00;;;;;;;-2.07;72.17;97821.09;5015259;28;19924;-37
2023/11/28 08:45:49;;;;;;;3.70;1.88;;;;;;;-2.05;72.15;97821.94;5046822;28;20045;-38
2023/11/28 08:48:15;;;;;;;2.47;1.25;;;;;;;-2.01;71.98;97829.50;5031702;28;20046;-38
2023/11/28 08:50:42;;;;;;;5.45;2.30;;;;;;;-2.22;71.67;97799.25;5025376;28;20077;-37
2023/11/28 08:53:08;;;;;;;5.50;1.90;;;;;;;-1.90;71.90;97834.44;5028361;28;20056;-38
2023/11/28 08:55:34;;;;;;;4.00;1.92;;;;;;;-1.98;71.03;97829.44;5032831;28;20437;-38
2023/11/28 08:57:59;;;;;;;4.22;2.22;;;;;;;-1.93;71.22;97826.81;5027337;28;20045;-37
2023/11/28 09:00:25;;;;;;;3.13;1.83;;;;;;;-1.74;71.17;97852.03;5034432;28;20088;-37
2023/11/28 09:02:51;;;;;;;2.47;1.20;;;;;;;-1.99;70.23;97832.03;5033654;28;20127;-38
2023/11/28 09:05:17;;;;;;;2.85;1.38;;;;;;;-2.10;70.77;97822.00;5032278;28;20048;-38
2023/11/28 09:07:44;;;;;;;4.65;2.20;;;;;;;-1.88;71.08;97863.25;5027466;28;20348;-37
2023/11/28 09:10:12;;;;;;;7.15;2.30;;;;;;;-1.72;71.32;97840.09;5011383;28;20096;-39
2023/11/28 09:12:38;;;;;;;10.93;2.47;;;;;;;-1.36;70.94;97876.06;5030964;28;20061;-39
2023/11/28 09:15:05;;;;;;;5.13;1.83;;;;;;;-1.42;70.45;97879.56;5030539;28;20048;-38
2023/11/28 09:17:31;;;;;;;4.53;2.35;;;;;;;-1.55;70.18;97884.84;5032729;28;20037;-37
2023/11/28 09:19:57;;;;;;;5.38;2.50;;;;;;;-1.61;70.57;97867.94;5038412;28;20052;-39
2023/11/28 09:22:23;;;;;;;4.50;2.00;;;;;;;-1.36;70.88;97914.28;5030201;28;20108;-38
2023/11/28 09:24:52;;;;;;;3.72;2.35;;;;;;;-1.46;70.79;97888.09;5052484;28;20051;-40
2023/11/28 09:27:18;;;;;;;3.72;1.85;;;;;;;-1.55;70.20;97893.34;5026174;28;20421;-40
2023/11/28 09:29:44;;;;;;;5.85;2.97;;;;;;;-1.74;70.48;97899.56;5025925;28;20037;-38
2023/11/28 09:32:11;;;;;;;3.22;1.70;;;;;;;-1.58;70.77;97895.94;5027853;28;20048;-38
2023/11/28 09:34:37;;;;;;;5.38;2.42;;;;;;;-2.02;70.70;97850.72;5035409;28;20424;-38
2023/11/28 09:37:03;;;;;;;5.57;2.08;;;;;;;-1.69;70.86;97910.53;5033132;28;20048;-38
2023/11/28 09:39:29;;;;;;;3.45;1.95;;;;;;;-1.69;70.63;97915.63;5030776;28;20051;-38
2023/11/28 09:41:59;;;;;;;3.85;1.30;;;;;;;-1.78;71.27;97919.13;5031478;28;20504;-38
2023/11/28 09:44:28;;;;;;;2.53;1.70;;;;;;;-1.82;71.46;97921.75;5016389;28;20045;-37
2023/11/28 09:46:56;;;;;;;11.15;2.30;;;;;;;-1.92;70.75;97928.66;5017575;28;20521;-37
2023/11/28 09:49:23;;;;;;;4.63;2.28;;;;;;;-2.05;70.98;97908.47;5030207;28;20041;-38
2023/11/28 09:51:49;;;;;;;5.03;2.47;;;;;;;-1.84;71.21;97951.50;5028832;28;20045;-38
2023/11/28 09:54:15;;;;;;;9.25;1.98;;;;;;;-2.06;71.61;97916.97;5023203;28;20127;-38
2023/11/28 09:56:47;;;;;;;2.22;1.25;;;;;;;-1.87;71.43;97946.41;5009270;28;20060;-39
2023/11/28 09:59:14;;;;;;;5.32;2.25;;;;;;;-1.84;71.70;97946.41;5022562;28;20043;-37
2023/11/28 10:01:42;;;;;;;2.80;1.73;;;;;;;-1.87;70.88;97956.59;5018359;28;20159;-37
2023/11/28 10:04:08;;;;;;;3.50;2.05;;;;;;;-1.94;71.22;97955.03;5026344;28;20037;-37
2023/11/28 10:06:35;;;;;;;4.35;2.17;;;;;;;-1.88;71.85;97953.22;5023507;28;20052;-38
2023/11/28 10:09:01;;;;;;;5.95;3.10;;;;;;;-1.75;71.57;97964.09;5022007;28;20519;-38
2023/11/28 10:11:30;;;;;;;3.95;2.08;;;;;;;-1.79;70.94;97959.91;5004125;28;20069;-37
2023/11/28 10:13:56;;;;;;;4.93;2.05;;;;;;;-1.78;70.78;97964.97;5006932;28;20037;-38
2023/11/28 10:16:42;;;;;;;4.15;1.75;;;;;;;-1.70;70.96;97972.53;5028649;28;20048;-37
2023/11/28 10:19:08;;;;;;;8.27;2.10;;;;;;;-1.72;70.52;97967.44;5016229;28;20041;-38
2023/11/28 10:21:35;;;;;;;3.17;1.83;;;;;;;-1.91;70.79;97957.50;5019870;28;20987;-37
2023/11/28 10:24:00;;;;;;;3.90;2.03;;;;;;;-1.85;71.06;97977.81;5021471;28;20520;-37
2023/11/28 10:26:27;;;;;;;2.65;1.70;;;;;;;-2.11;71.38;97950.13;5018533;28;20049;-38
2023/11/28 10:28:54;;;;;;;2.22;1.08;;;;;;;-1.85;71.19;97988.00;5024939;28;20044;-39
2023/11/28 10:31:20;;;;;;;3.10;1.67;;;;;;;-1.92;71.61;97999.97;5024689;28;20351;-38
2023/11/28 10:33:45;;;;;;;4.72;2.22;;;;;;;-1.84;71.37;98005.81;5025893;28;20091;-38
2023/11/28 10:36:14;;;;;;;4.72;1.98;;;;;;;-1.60;71.50;98012.28;5020645;28;20045;-37
2023/11/28 10:38:40;;;;;;;2.60;1.15;;;;;;;-1.61;70.83;98015.69;5054864;28;20077;-39
2023/11/28 10:41:06;;;;;;;6.05;2.08;;;;;;;-1.78;70.44;98015.09;5008512;28;20029;-37
2023/11/28 10:43:32;;;;;;;4.00;2.33;;;;;;;-1.79;70.95;98016.78;5021779;28;20440;-37
2023/11/28 10:45:58;;;;;;;7.25;2.45;;;;;;;-1.78;70.79;98015.91;5019023;28;20069;-39
2023/11/28 10:48:25;;;;;;;3.55;1.88;;;;;;;-1.91;70.25;98032.19;5057157;28;20595;-38
2023/11/28 10:50:51;;;;;;;6.30;2.30;;;;;;;-2.09;70.41;97978.13;5044572;28;20045;-37
2023/11/28 10:53:18;;;;;;;4.57;2.33;;;;;;;-1.86;70.90;98027.91;5027016;28;20100;-38
2023/11/28 10:55:52;;;;;;;3.33;1.70;;;;;;;-2.02;71.07;98007.72;5019186;28;20051;-37
2023/11/28 10:58:19;;;;;;;3.75;1.63;;;;;;;-1.82;70.84;98046.53;5010983;28;20037;-37
2023/11/28 11:00:52;;;;;;;6.25;2.30;;;;;;;-1.84;70.74;98049.13;5023180;28;20075;-39
2023/11/28 11:03:20;;;;;;;5.10;1.75;;;;;;;-1.83;70.74;98073.69;5023752;28;20124;-38
2023/11/28 11:05:46;;;;;;;2.85;1.15;;;;;;;-2.16;70.44;98039.28;5020424;28;20037;-37
2023/11/28 11:08:12;;;;;;;7.07;1.95;;;;;;;-1.99;70.86;98072.16;5019526;28;20045;-37
2023/11/28 11:10:42;;;;;;;5.50;2.08;;;;;;;-1.91;71.27;98072.94;5007432;28;20054;-38
2023/11/28 11:13:17;;;;;;;;;;;;;;;-1.82;71.29;98075.38;5017414;28;20038;-37
2023/11/28 11:16:07;;;;;;;1.88;1.33;;;;;;;-1.88;70.99;98084.78;5016290;28;20442;-38
2023/11/28 11:18:46;;;;;;;5.10;2.28;;;;;;;-1.85;71.20;98075.44;5024770;28;20140;-39
2023/11/28 11:21:24;;;;;;;3.70;2.28;;;;;;;-1.87;71.00;98099.22;5020648;28;20033;-38
2023/11/28 11:23:54;;;;;;;3.28;1.63;;;;;;;-1.92;70.35;98121.34;5023295;28;20041;-37
2023/11/28 11:26:41;;;;;;;3.03;1.73;;;;;;;-1.98;70.21;98088.28;5024959;28;20045;-39
2023/11/28 11:29:40;;;;;;;3.42;1.58;;;;;;;-1.98;69.81;98101.03;5023337;28;20038;-39
2023/11/28 11:32:14;;;;;;;4.20;1.80;;;;;;;-2.08;69.54;98089.25;4993978;28;20064;-38